Time;durP1;ratioP1;P1;durP2;ratioP2;P2;SDS_P1;SDS_P2;PMS_P1;PMS_P2;Temp;Humidity;BMP_temperature;BMP_pressure;BME280_temperature;BME280_humidity;BME280_pressure;Samples;Min_cycle;Max_cycle;Signal;HPM_P1;HPM_P2
2021/07/21 00:02:19;;;;;;;10.93;7.60;;;;;;;20.47;57.73;100738.81;5014219;28;20411;-81
2021/07/21 00:04:45;;;;;;;12.03;7.20;;;;;;;20.40;58.08;100747.47;5030233;28;20439;-81
2021/07/21 00:07:14;;;;;;;12.38;7.90;;;;;;;20.33;58.92;100741.53;5014376;28;20405;-81
2021/07/21 00:09:39;;;;;;;11.48;7.60;;;;;;;20.27;59.35;100740.00;5030468;28;20387;-81
2021/07/21 00:14:49;;;;;;;12.20;8.63;;;;;;;20.19;60.29;100748.88;5012295;28;20426;-81
2021/07/21 00:17:19;;;;;;;11.68;8.75;;;;;;;20.17;60.55;100756.66;5012027;28;20819;-81
2021/07/21 00:20:07;;;;;;;11.82;8.13;;;;;;;20.16;60.74;100750.31;5018515;28;20390;-81
2021/07/21 00:22:35;;;;;;;14.50;7.90;;;;;;;20.13;60.23;100741.84;5016909;28;20418;-81
2021/07/21 00:25:01;;;;;;;10.45;8.10;;;;;;;20.08;60.41;100742.78;5030002;28;20399;-81
2021/07/21 00:27:27;;;;;;;12.70;8.65;;;;;;;20.08;59.90;100740.00;5031580;28;20454;-81
2021/07/21 00:29:52;;;;;;;9.13;8.17;;;;;;;20.08;59.49;100740.00;5031648;28;20402;-81
2021/07/21 00:32:18;;;;;;;8.90;7.73;;;;;;;20.07;58.90;100734.81;5031251;28;20407;-81
2021/07/21 00:34:44;;;;;;;12.00;7.53;;;;;;;20.06;58.79;100733.16;5031014;28;20745;-81
2021/07/21 00:37:09;;;;;;;12.95;8.20;;;;;;;20.07;58.53;100724.63;5031234;28;20786;-81
2021/07/21 00:39:34;;;;;;;10.23;7.67;;;;;;;20.06;57.60;100724.91;5031556;28;20441;-81
2021/07/21 00:42:00;;;;;;;9.40;7.43;;;;;;;20.05;57.38;100729.63;5031387;28;20415;-81
2021/07/21 00:44:25;;;;;;;8.40;7.43;;;;;;;20.05;57.06;100734.31;5031268;28;20877;-81
2021/07/21 00:46:51;;;;;;;9.83;7.40;;;;;;;20.03;57.03;100734.59;5031388;28;20395;-81
2021/07/21 00:49:16;;;;;;;9.00;7.40;;;;;;;20.04;57.00;100732.66;5031315;28;20383;-81
2021/07/21 00:51:41;;;;;;;12.03;7.83;;;;;;;19.98;56.65;100731.13;5031291;28;20419;-81
2021/07/21 00:54:07;;;;;;;9.35;7.93;;;;;;;19.88;57.05;100728.53;5031105;28;20751;-81
2021/07/21 00:56:35;;;;;;;8.50;7.53;;;;;;;19.87;57.36;100733.22;5030591;28;20471;-81
2021/07/21 00:59:01;;;;;;;12.10;7.47;;;;;;;19.86;56.96;100733.50;5035241;28;20410;-81
2021/07/21 01:01:27;;;;;;;9.80;7.60;;;;;;;19.85;56.79;100732.69;5034914;28;20417;-81
2021/07/21 01:03:52;;;;;;;9.80;7.60;;;;;;;19.81;56.87;100728.09;5035397;28;20425;-81
2021/07/21 01:06:17;;;;;;;9.13;7.60;;;;;;;19.80;57.12;100726.44;5033866;28;20453;-81
2021/07/21 01:08:43;;;;;;;10.53;7.73;;;;;;;19.82;57.44;100729.72;5035116;28;20457;-81
2021/07/21 01:11:16;;;;;;;11.35;7.35;;;;;;;19.82;57.45;100732.47;5034905;28;20414;-81
2021/07/21 01:14:17;;;;;;;8.17;7.17;;;;;;;19.77;57.21;100735.28;5018617;28;20451;-82
2021/07/21 01:16:48;;;;;;;11.67;8.23;;;;;;;19.76;57.68;100741.94;5001343;28;20443;-82
2021/07/21 01:19:44;;;;;;;9.60;7.43;;;;;;;19.76;57.58;100733.69;5015532;28;20736;-82
2021/07/21 01:22:19;;;;;;;12.02;8.00;;;;;;;19.72;57.50;100741.72;5023149;28;20433;-81
2021/07/21 01:25:04;;;;;;;10.15;7.90;;;;;;;19.70;57.50;100732.91;5034827;28;20387;-82
2021/07/21 01:27:35;;;;;;;14.60;8.10;;;;;;;19.70;57.75;100727.41;5034914;28;20403;-81
2021/07/21 01:30:29;;;;;;;11.70;7.87;;;;;;;19.71;57.73;100742.00;5034950;28;20393;-81
2021/07/21 01:33:17;;;;;;;8.90;6.77;;;;;;;19.67;57.65;100733.53;5009072;28;20401;-82
2021/07/21 01:35:50;;;;;;;12.52;8.82;;;;;;;19.61;57.59;100731.97;5034202;28;20399;-81
2021/07/21 01:38:21;;;;;;;12.00;7.80;;;;;;;19.56;58.09;100730.09;5034688;28;20466;-82
2021/07/21 01:40:53;;;;;;;13.45;7.60;;;;;;;19.57;58.41;100725.44;5034593;28;20395;-81
2021/07/21 01:43:22;;;;;;;12.38;8.40;;;;;;;19.53;58.47;100729.88;5016678;28;20747;-81
2021/07/21 01:45:54;;;;;;;11.65;8.57;;;;;;;19.44;58.45;100729.75;5034144;28;20402;-82
2021/07/21 01:48:22;;;;;;;12.07;8.40;;;;;;;19.43;58.75;100725.34;5034536;28;20398;-81
2021/07/21 01:50:50;;;;;;;11.50;7.37;;;;;;;19.44;59.20;100718.75;5016583;28;20778;-81
2021/07/21 01:53:17;;;;;;;13.60;8.23;;;;;;;19.39;58.92;100716.06;5034578;28;20910;-82
2021/07/21 01:55:44;;;;;;;17.10;8.45;;;;;;;19.35;59.45;100708.69;5034342;28;20478;-81
2021/07/21 01:58:12;;;;;;;12.40;7.72;;;;;;;19.28;58.86;100720.06;5033997;28;20414;-82
2021/07/21 02:00:39;;;;;;;14.27;7.93;;;;;;;19.27;58.88;100714.84;5016606;28;20399;-81
2021/07/21 02:03:07;;;;;;;11.45;7.82;;;;;;;19.25;58.98;100714.31;5016167;28;20813;-81
2021/07/21 02:05:34;;;;;;;12.40;7.88;;;;;;;19.25;58.92;100711.59;5034181;28;20430;-82
2021/07/21 02:08:01;;;;;;;12.93;7.85;;;;;;;19.28;58.90;100713.72;5034121;28;20403;-82
2021/07/21 02:10:28;;;;;;;11.32;7.28;;;;;;;19.18;58.73;100710.03;5034168;28;20407;-82
2021/07/21 02:13:04;;;;;;;12.77;7.03;;;;;;;19.15;58.66;100720.78;5033843;28;20391;-82
2021/07/21 02:15:30;;;;;;;10.20;7.63;;;;;;;19.13;58.75;100718.31;5016121;28;20402;-82
2021/07/21 02:17:55;;;;;;;10.53;7.57;;;;;;;19.11;59.01;100712.31;5034089;28;20688;-82
2021/07/21 02:20:24;;;;;;;9.20;6.60;;;;;;;19.14;59.04;100721.88;5033806;28;20499;-81
2021/07/21 02:22:49;;;;;;;11.20;7.47;;;;;;;19.10;59.06;100710.66;5033468;28;20423;-82
2021/07/21 02:25:16;;;;;;;9.52;6.72;;;;;;;19.11;58.83;100722.47;5033746;28;20391;-81
2021/07/21 02:27:41;;;;;;;17.30;7.43;;;;;;;19.03;59.14;100726.69;5033929;28;20403;-81
2021/07/21 02:30:08;;;;;;;7.70;6.80;;;;;;;18.95;59.18;100723.78;5033681;28;20383;-82
2021/07/21 02:32:44;;;;;;;8.65;6.70;;;;;;;19.01;59.47;100728.09;5015905;28;20395;-82
2021/07/21 02:35:10;;;;;;;16.05;7.28;;;;;;;18.96;59.42;100730.94;5033372;28;20383;-82
2021/07/21 02:37:35;;;;;;;10.38;6.78;;;;;;;18.93;59.54;100729.59;5032265;28;20742;-82
2021/07/21 02:40:01;;;;;;;15.25;7.65;;;;;;;18.90;59.86;100732.91;5033397;28;20457;-82
2021/07/21 02:42:26;;;;;;;10.93;7.47;;;;;;;18.82;59.89;100728.06;5033370;28;20423;-81
2021/07/21 02:44:52;;;;;;;12.03;7.00;;;;;;;18.84;60.28;100719.53;5033591;28;20482;-82
2021/07/21 02:47:19;;;;;;;11.85;7.70;;;;;;;18.82;60.40;100727.25;5015585;28;21120;-82
2021/07/21 02:49:46;;;;;;;9.40;7.00;;;;;;;18.84;60.43;100719.53;5033062;28;20482;-82
2021/07/21 02:52:54;;;;;;;10.30;6.80;;;;;;;18.86;60.38;100723.63;5032937;28;20399;-81
2021/07/21 02:55:27;;;;;;;9.05;6.85;;;;;;;18.83;60.21;100721.47;5019797;28;20407;-81
2021/07/21 02:57:59;;;;;;;9.18;7.10;;;;;;;18.82;60.35;100725.31;5032943;28;20411;-82
2021/07/21 03:00:28;;;;;;;12.85;6.85;;;;;;;18.77;60.12;100725.38;5033173;28;20399;-82
2021/07/21 03:02:55;;;;;;;14.80;7.18;;;;;;;18.77;59.97;100730.84;5032944;28;20415;-82
2021/07/21 03:05:25;;;;;;;9.93;7.00;;;;;;;18.76;60.46;100737.47;5033127;28;20399;-81
2021/07/21 03:07:56;;;;;;;12.40;7.40;;;;;;;18.74;60.47;100731.44;5015311;28;20494;-82
2021/07/21 03:10:22;;;;;;;10.63;6.97;;;;;;;18.77;60.48;100738.31;5032506;28;20823;-81
2021/07/21 03:12:54;;;;;;;8.27;7.05;;;;;;;18.74;60.58;100736.16;5032822;28;20494;-81
2021/07/21 03:15:20;;;;;;;10.60;6.88;;;;;;;18.70;60.67;100741.41;5032841;28;20391;-82
2021/07/21 03:17:48;;;;;;;11.80;6.82;;;;;;;18.72;60.34;100741.91;5015293;28;20387;-82
2021/07/21 03:20:16;;;;;;;12.68;7.47;;;;;;;18.67;59.88;100743.91;5031656;28;20403;-82
2021/07/21 03:22:43;;;;;;;12.90;6.53;;;;;;;18.60;60.24;100742.34;5032512;28;20517;-82
2021/07/21 03:25:10;;;;;;;12.88;6.95;;;;;;;18.63;60.22;100738.19;5032587;28;20393;-81
2021/07/21 03:27:37;;;;;;;19.33;7.45;;;;;;;18.67;60.06;100741.16;5032420;28;20425;-82
2021/07/21 03:30:06;;;;;;;13.20;6.78;;;;;;;18.65;60.21;100742.25;5014752;28;20417;-82
2021/07/21 03:32:32;;;;;;;9.07;6.18;;;;;;;18.67;60.14;100745.53;5032535;28;20479;-81
2021/07/21 03:34:58;;;;;;;9.05;6.53;;;;;;;18.62;59.76;100742.84;5032690;28;20480;-82
2021/07/21 03:37:25;;;;;;;9.53;6.93;;;;;;;18.59;59.82;100743.44;5032514;28;20395;-82
2021/07/21 03:39:56;;;;;;;8.95;6.50;;;;;;;18.62;59.97;100745.59;5033049;28;20479;-82
2021/07/21 03:42:27;;;;;;;9.63;7.15;;;;;;;18.63;60.03;100758.22;5032131;28;20457;-82
2021/07/21 03:44:56;;;;;;;11.23;6.85;;;;;;;18.57;59.75;100745.63;5031954;28;20889;-81
2021/07/21 03:47:22;;;;;;;11.57;7.00;;;;;;;18.57;59.77;100750.31;5032191;28;20402;-82
2021/07/21 03:49:50;;;;;;;10.55;6.00;;;;;;;18.56;59.70;100754.16;5031936;28;20406;-82
2021/07/21 03:52:15;;;;;;;7.45;6.22;;;;;;;18.40;59.68;100752.66;5031896;28;20383;-82
2021/07/21 03:54:41;;;;;;;7.47;6.20;;;;;;;18.34;59.83;100759.31;5010923;28;20459;-82
2021/07/21 03:57:08;;;;;;;8.47;6.10;;;;;;;18.26;59.95;100763.50;5012608;28;20393;-81
2021/07/21 03:59:36;;;;;;;8.15;6.30;;;;;;;18.39;60.21;100772.97;5014112;28;20771;-82
2021/07/21 04:02:02;;;;;;;10.20;6.25;;;;;;;18.42;59.64;100769.66;5031555;28;20437;-82
2021/07/21 04:04:28;;;;;;;10.35;6.25;;;;;;;18.46;59.62;100773.44;5031559;28;20403;-82
2021/07/21 04:06:54;;;;;;;10.73;6.75;;;;;;;18.39;59.65;100770.22;5031822;28;20881;-82
2021/07/21 04:09:22;;;;;;;10.80;7.03;;;;;;;18.41;59.51;100774.31;5031461;28;20395;-82
2021/07/21 04:11:49;;;;;;;9.23;6.45;;;;;;;18.29;59.57;100782.13;5031608;28;20558;-82
2021/07/21 04:14:16;;;;;;;7.78;6.40;;;;;;;18.33;59.90;100779.63;5014022;28;20778;-82
2021/07/21 04:16:43;;;;;;;8.57;6.70;;;;;;;18.39;59.86;100776.53;5031877;28;20490;-82
2021/07/21 04:19:10;;;;;;;12.00;6.65;;;;;;;18.34;59.53;100779.31;5014221;28;20387;-82
2021/07/21 04:21:47;;;;;;;11.00;6.63;;;;;;;18.25;59.38;100782.97;5031613;28;20492;-82
2021/07/21 04:24:13;;;;;;;9.55;6.82;;;;;;;18.23;59.79;100787.94;5031583;28;20478;-82
2021/07/21 04:26:40;;;;;;;11.60;6.32;;;;;;;18.25;60.01;100788.44;5031725;28;20390;-82
2021/07/21 04:29:16;;;;;;;8.77;6.60;;;;;;;18.29;59.77;100789.53;5028442;28;20947;-83
2021/07/21 04:31:44;;;;;;;7.35;5.82;;;;;;;18.33;59.74;100796.06;5027399;28;20407;-82
2021/07/21 04:34:11;;;;;;;11.87;6.03;;;;;;;18.39;59.92;100786.69;5012344;28;20486;-81
2021/07/21 04:36:39;;;;;;;7.90;6.03;;;;;;;18.33;59.33;100791.41;5030408;28;20398;-83
2021/07/21 04:39:05;;;;;;;11.20;6.50;;;;;;;18.36;59.69;100790.00;5030407;28;21709;-81
2021/07/21 04:41:31;;;;;;;12.15;6.38;;;;;;;18.40;59.66;100791.06;5013331;28;20430;-82
2021/07/21 04:43:56;;;;;;;9.00;6.25;;;;;;;18.39;59.60;100784.75;5030727;28;20411;-82
2021/07/21 04:46:22;;;;;;;9.03;6.30;;;;;;;18.38;59.36;100782.28;5030096;28;21079;-82
2021/07/21 04:48:48;;;;;;;7.88;5.93;;;;;;;18.40;59.34;100791.06;5030305;28;20807;-80
2021/07/21 04:51:16;;;;;;;10.80;6.47;;;;;;;18.37;59.17;100789.75;5030281;28;20783;-81
2021/07/21 04:53:42;;;;;;;7.75;6.22;;;;;;;18.31;59.43;100795.56;5029278;28;20894;-81
2021/07/21 04:56:07;;;;;;;7.65;6.85;;;;;;;18.34;59.74;100797.72;5029398;28;20413;-81
2021/07/21 04:58:33;;;;;;;11.13;6.53;;;;;;;18.39;59.49;100795.75;5030365;28;20419;-81
2021/07/21 05:00:59;;;;;;;9.03;6.00;;;;;;;18.39;59.37;100800.41;5024365;28;20411;-80
2021/07/21 05:03:24;;;;;;;10.85;6.78;;;;;;;18.40;59.54;100810.28;5030218;28;20410;-80
2021/07/21 05:05:49;;;;;;;8.23;5.87;;;;;;;18.41;59.48;100818.22;5030197;28;20917;-80
2021/07/21 05:08:15;;;;;;;9.57;6.47;;;;;;;18.42;59.42;100817.13;5026905;28;20410;-80
2021/07/21 05:10:43;;;;;;;9.10;6.77;;;;;;;18.43;59.48;100821.50;5021173;28;20423;-80
2021/07/21 05:13:09;;;;;;;9.93;6.90;;;;;;;18.41;59.61;100812.72;5017152;28;20466;-80
2021/07/21 05:15:35;;;;;;;7.60;6.35;;;;;;;18.37;59.58;100819.91;5023625;28;20495;-80
2021/07/21 05:18:00;;;;;;;9.38;6.38;;;;;;;18.30;59.46;100813.94;5008094;28;20402;-82
2021/07/21 05:20:26;;;;;;;7.43;6.05;;;;;;;18.38;59.40;100824.28;5025983;28;20806;-81
2021/07/21 05:22:51;;;;;;;8.80;6.17;;;;;;;18.39;59.40;100822.34;5018278;28;21047;-81
2021/07/21 05:25:17;;;;;;;11.47;6.90;;;;;;;18.38;59.51;100824.28;5023053;28;20423;-81
2021/07/21 05:27:44;;;;;;;6.88;6.05;;;;;;;18.44;59.55;100831.34;5023294;28;20472;-81
2021/07/21 05:30:14;;;;;;;8.82;6.03;;;;;;;18.46;59.53;100829.16;5023837;28;20490;-82
2021/07/21 05:32:39;;;;;;;9.43;6.28;;;;;;;18.46;59.38;100834.66;5022841;28;20498;-84
2021/07/21 05:35:05;;;;;;;10.40;7.23;;;;;;;18.50;59.23;100834.94;5024511;28;20501;-87
2021/07/21 05:37:31;;;;;;;7.78;6.03;;;;;;;18.53;59.32;100837.91;5024079;28;20418;-83
2021/07/21 05:39:57;;;;;;;15.50;7.07;;;;;;;18.55;59.41;100837.63;5000444;28;20416;-84
2021/07/21 05:42:22;;;;;;;8.23;6.35;;;;;;;18.50;58.85;100834.94;5014621;28;20519;-79
2021/07/21 05:44:48;;;;;;;9.97;6.80;;;;;;;18.54;59.03;100834.03;5014505;28;20537;-78
2021/07/21 05:47:13;;;;;;;9.70;6.22;;;;;;;18.51;58.87;100836.53;5018612;28;20427;-80
2021/07/21 05:49:39;;;;;;;7.73;5.87;;;;;;;18.60;58.68;100848.56;5002131;28;20495;-80
2021/07/21 05:52:05;;;;;;;8.15;6.20;;;;;;;18.61;58.46;100841.94;5014949;28;20511;-79
2021/07/21 05:54:30;;;;;;;11.63;6.90;;;;;;;18.61;58.41;100848.25;5017333;28;22354;-79
2021/07/21 05:56:55;;;;;;;11.30;6.10;;;;;;;18.65;58.56;100854.00;5014340;28;20772;-79
2021/07/21 05:59:20;;;;;;;11.33;6.57;;;;;;;18.67;58.37;100855.34;5014564;28;20427;-79
2021/07/21 06:01:46;;;;;;;8.57;5.77;;;;;;;18.75;58.35;100858.56;4986788;28;20415;-79
2021/07/21 06:04:11;;;;;;;8.27;5.80;;;;;;;18.80;58.09;100861.28;5017762;28;20949;-80
2021/07/21 06:06:36;;;;;;;9.73;6.28;;;;;;;18.80;58.21;100867.59;5013838;28;20727;-77
2021/07/21 06:09:03;;;;;;;8.90;5.77;;;;;;;18.79;58.03;100868.69;5016096;28;20418;-80
2021/07/21 06:11:29;;;;;;;8.95;6.05;;;;;;;18.81;57.94;100862.91;5016588;28;20514;-80
2021/07/21 06:13:57;;;;;;;7.47;5.87;;;;;;;18.82;58.15;100870.03;5014011;28;21289;-80
2021/07/21 06:16:24;;;;;;;6.97;5.53;;;;;;;18.86;57.97;100871.09;5014747;28;20907;-79
2021/07/21 06:18:49;;;;;;;9.65;7.40;;;;;;;18.89;58.19;100865.84;5015112;28;20909;-80
2021/07/21 06:21:15;;;;;;;10.95;6.25;;;;;;;18.92;58.20;100865.25;5014495;28;20472;-79
2021/07/21 06:23:40;;;;;;;8.73;5.63;;;;;;;18.95;58.34;100864.69;4995239;28;20423;-79
2021/07/21 06:26:05;;;;;;;6.77;5.43;;;;;;;18.95;58.18;100872.09;5014324;28;20420;-79
2021/07/21 06:28:31;;;;;;;6.75;5.72;;;;;;;18.86;57.98;100863.69;5014442;28;20948;-80
2021/07/21 06:30:56;;;;;;;9.20;5.80;;;;;;;18.91;58.51;100868.28;5000227;28;20437;-79
2021/07/21 06:33:21;;;;;;;7.80;5.83;;;;;;;19.00;58.41;100883.03;5012941;28;20417;-79
2021/07/21 06:35:48;;;;;;;7.90;5.57;;;;;;;19.00;58.11;100881.09;5013070;28;20740;-80
2021/07/21 06:38:14;;;;;;;7.95;5.97;;;;;;;19.07;58.00;100881.56;5015480;28;20588;-79
2021/07/21 06:40:40;;;;;;;8.77;6.13;;;;;;;19.14;58.10;100890.28;5014499;28;20603;-79
2021/07/21 06:43:06;;;;;;;10.48;6.43;;;;;;;19.16;57.62;100887.28;5016705;28;20415;-80
2021/07/21 06:45:31;;;;;;;6.80;5.80;;;;;;;19.23;57.68;100893.25;5013708;28;20426;-80
2021/07/21 06:47:56;;;;;;;12.10;6.25;;;;;;;19.22;57.84;100891.59;4999416;28;20829;-79
2021/07/21 06:50:23;;;;;;;9.83;5.63;;;;;;;19.18;57.40;100887.78;5015400;28;20456;-80
2021/07/21 06:52:49;;;;;;;9.97;6.07;;;;;;;19.26;57.63;100894.56;5013852;28;20457;-80
2021/07/21 06:55:15;;;;;;;6.20;5.28;;;;;;;19.34;57.64;100893.91;5013166;28;20418;-80
2021/07/21 06:57:40;;;;;;;9.07;6.10;;;;;;;19.40;57.34;100895.50;5014618;28;20544;-80
2021/07/21 07:00:06;;;;;;;7.55;5.88;;;;;;;19.45;57.35;100898.22;5015036;28;20410;-80
2021/07/21 07:02:32;;;;;;;7.57;6.30;;;;;;;19.52;57.46;100898.69;5016902;28;20418;-80
2021/07/21 07:04:57;;;;;;;8.97;5.90;;;;;;;19.57;57.34;100891.19;4998898;28;20504;-79
2021/07/21 07:07:22;;;;;;;11.30;6.00;;;;;;;19.62;57.28;100902.16;4996987;28;21015;-80
2021/07/21 07:09:48;;;;;;;7.87;6.10;;;;;;;19.65;56.75;100895.25;5013863;28;20409;-79
2021/07/21 07:12:13;;;;;;;10.43;6.00;;;;;;;19.68;57.13;100889.97;5011413;28;20415;-80
2021/07/21 07:14:39;;;;;;;7.38;5.57;;;;;;;19.75;56.80;100902.53;5011986;28;21086;-80
2021/07/21 07:17:04;;;;;;;6.57;5.73;;;;;;;19.76;56.88;100896.72;5013773;28;20972;-80
2021/07/21 07:19:30;;;;;;;11.23;7.20;;;;;;;19.80;56.80;100899.69;4998427;28;20530;-81
2021/07/21 07:21:55;;;;;;;8.25;5.60;;;;;;;19.81;56.87;100893.91;5014193;28;20502;-79
2021/07/21 07:24:20;;;;;;;8.90;5.20;;;;;;;19.86;57.06;100896.59;5014547;28;20931;-80
2021/07/21 07:26:46;;;;;;;6.13;5.30;;;;;;;19.88;56.39;100904.56;4995383;28;20502;-79
2021/07/21 07:29:12;;;;;;;10.15;5.75;;;;;;;19.93;56.88;100902.53;5011801;28;20458;-79
2021/07/21 07:31:37;;;;;;;7.28;5.53;;;;;;;19.99;57.03;100904.09;4995893;28;20611;-80
2021/07/21 07:34:02;;;;;;;10.67;6.00;;;;;;;20.03;56.27;100894.16;4982322;28;22497;-80
2021/07/21 07:36:28;;;;;;;7.53;5.50;;;;;;;20.05;56.63;100893.88;4998399;28;20501;-80
2021/07/21 07:38:53;;;;;;;9.30;5.83;;;;;;;20.14;56.83;100894.84;4999379;28;21154;-80
2021/07/21 07:41:22;;;;;;;6.50;5.50;;;;;;;20.19;56.19;100894.75;4993715;28;20476;-79
2021/07/21 07:43:51;;;;;;;24.90;6.90;;;;;;;20.24;56.03;100900.19;4997173;28;20418;-80
2021/07/21 07:46:17;;;;;;;9.35;5.63;;;;;;;20.25;55.88;100898.25;4995093;28;20424;-80
2021/07/21 07:48:42;;;;;;;7.15;6.22;;;;;;;20.27;56.15;100896.03;4984643;28;21057;-80
2021/07/21 07:51:08;;;;;;;8.65;5.55;;;;;;;20.30;56.56;100893.50;5000805;28;20462;-80
2021/07/21 07:53:33;;;;;;;8.93;5.37;;;;;;;20.36;56.25;100900.56;5006951;28;20473;-79
2021/07/21 07:55:59;;;;;;;12.50;6.03;;;;;;;20.38;55.92;100894.78;5007528;28;20407;-80
2021/07/21 07:58:24;;;;;;;8.02;5.30;;;;;;;20.42;55.61;100893.03;5003190;28;20427;-80
2021/07/21 08:00:49;;;;;;;6.87;5.23;;;;;;;20.48;56.02;100886.38;4990036;28;20797;-80
2021/07/21 08:03:15;;;;;;;6.87;5.47;;;;;;;20.54;55.76;100883.22;5007686;28;20419;-79
2021/07/21 08:05:42;;;;;;;7.80;5.60;;;;;;;20.60;55.84;100890.28;5004970;28;20429;-79
2021/07/21 08:08:07;;;;;;;10.10;5.93;;;;;;;20.65;55.53;100892.09;5007023;28;20418;-80
2021/07/21 08:10:33;;;;;;;7.68;5.57;;;;;;;20.69;55.10;100890.41;5004724;28;20417;-80
2021/07/21 08:12:59;;;;;;;7.37;5.27;;;;;;;20.77;55.35;100888.91;5004141;28;20427;-79
2021/07/21 08:15:24;;;;;;;7.43;5.20;;;;;;;20.81;55.22;100884.41;5000401;28;20441;-80
2021/07/21 08:17:50;;;;;;;8.03;5.60;;;;;;;20.85;55.28;100882.66;5004995;28;20422;-80
2021/07/21 08:20:15;;;;;;;7.32;5.47;;;;;;;20.88;55.04;100888.41;5006309;28;20465;-80
2021/07/21 08:22:40;;;;;;;8.07;5.50;;;;;;;20.95;55.66;100880.56;5004795;28;20790;-79
2021/07/21 08:25:19;;;;;;;9.27;4.83;;;;;;;21.01;55.24;100879.34;5003149;28;20549;-80
2021/07/21 08:27:44;;;;;;;12.57;5.43;;;;;;;21.05;54.86;100885.06;5006995;28;20426;-80
2021/07/21 08:30:14;;;;;;;7.55;5.70;;;;;;;21.13;55.93;100890.72;5005891;28;20410;-80
2021/07/21 08:32:44;;;;;;;7.85;5.65;;;;;;;21.23;54.63;100883.38;5003063;28;20429;-80
2021/07/21 08:35:12;;;;;;;8.80;5.57;;;;;;;21.29;54.68;100880.22;5005908;28;20656;-80
2021/07/21 08:37:38;;;;;;;10.18;5.50;;;;;;;21.38;54.77;100885.81;5005159;28;20417;-80
2021/07/21 08:40:05;;;;;;;7.18;5.55;;;;;;;21.46;54.65;100880.44;5005796;28;20429;-79
2021/07/21 08:42:32;;;;;;;8.50;5.37;;;;;;;21.55;54.71;100875.00;5005369;28;20422;-80
2021/07/21 08:44:57;;;;;;;9.75;5.38;;;;;;;21.63;54.66;100874.28;5006287;28;20426;-80
2021/07/21 08:47:23;;;;;;;5.57;5.03;;;;;;;21.71;54.14;100870.78;5005403;28;20399;-80
2021/07/21 08:49:48;;;;;;;6.75;5.40;;;;;;;21.80;53.61;100882.72;5004447;28;20503;-80
2021/07/21 08:52:16;;;;;;;9.10;5.80;;;;;;;21.86;52.97;100876.00;5003728;28;20413;-80
2021/07/21 08:54:45;;;;;;;8.32;5.88;;;;;;;21.94;53.25;100880.78;5005534;28;20441;-80
2021/07/21 08:57:12;;;;;;;7.40;5.45;;;;;;;22.04;53.58;100875.03;5002648;28;20405;-80
2021/07/21 08:59:38;;;;;;;6.20;5.40;;;;;;;22.12;52.98;100874.31;5004464;28;21134;-80
2021/07/21 09:02:03;;;;;;;8.00;5.43;;;;;;;22.22;52.77;100873.25;5007156;28;20434;-80
2021/07/21 09:04:32;;;;;;;9.63;5.70;;;;;;;22.34;52.59;100876.28;4987002;28;20411;-80
2021/07/21 09:06:57;;;;;;;9.60;5.50;;;;;;;22.43;51.74;100876.31;5005411;28;20416;-80
2021/07/21 09:09:22;;;;;;;15.13;5.80;;;;;;;22.51;51.50;100881.94;5006363;28;20415;-80
2021/07/21 09:11:48;;;;;;;10.73;5.33;;;;;;;22.62;51.80;100882.50;5004732;28;20427;-80
2021/07/21 09:14:13;;;;;;;10.37;4.83;;;;;;;22.73;51.19;100883.88;5004098;28;20569;-80
2021/07/21 09:16:39;;;;;;;10.32;5.57;;;;;;;22.82;51.08;100883.97;5004486;28;20422;-80
2021/07/21 09:19:04;;;;;;;7.60;5.20;;;;;;;22.93;51.03;100872.31;5007929;28;20985;-80
2021/07/21 09:21:29;;;;;;;8.87;5.53;;;;;;;23.06;50.46;100878.88;5008509;28;20422;-80
2021/07/21 09:23:57;;;;;;;9.77;5.43;;;;;;;23.17;49.36;100874.69;5008415;28;20840;-80
2021/07/21 09:26:22;;;;;;;8.18;5.28;;;;;;;23.25;49.56;100880.25;4990845;28;20407;-80
2021/07/21 09:28:50;;;;;;;9.47;6.00;;;;;;;23.36;48.72;100882.75;4989745;28;20984;-80
2021/07/21 09:31:35;;;;;;;10.52;5.70;;;;;;;23.40;48.42;100875.44;5007844;28;20460;-80
2021/07/21 09:34:15;;;;;;;10.73;5.88;;;;;;;23.51;48.65;100887.88;5011499;28;21150;-80
2021/07/21 09:36:40;;;;;;;9.02;5.43;;;;;;;23.69;48.42;100884.84;5008321;28;20419;-81
2021/07/21 09:39:06;;;;;;;6.10;5.10;;;;;;;23.80;48.40;100879.81;5006946;28;20522;-80
2021/07/21 09:41:32;;;;;;;6.85;4.90;;;;;;;23.93;47.40;100886.34;4990864;28;20415;-80
2021/07/21 09:44:02;;;;;;;5.47;5.00;;;;;;;24.11;47.52;100880.50;5006843;28;20443;-80
2021/07/21 09:46:28;;;;;;;8.20;5.60;;;;;;;24.29;46.48;100884.13;5007113;28;20402;-80
2021/07/21 09:48:53;;;;;;;8.68;5.18;;;;;;;24.43;45.87;100884.78;4994273;28;20419;-80
2021/07/21 09:51:31;;;;;;;5.63;4.83;;;;;;;24.60;45.76;100889.47;5005714;28;21153;-80
2021/07/21 09:54:15;;;;;;;6.27;5.13;;;;;;;24.77;45.30;100884.69;5009090;28;20621;-80
2021/07/21 09:56:40;;;;;;;5.53;4.97;;;;;;;25.01;43.77;100881.41;5007589;28;20409;-80
2021/07/21 09:59:28;;;;;;;6.57;4.83;;;;;;;25.18;44.51;100878.59;5005144;28;20427;-80
2021/07/21 10:01:54;;;;;;;7.55;4.97;;;;;;;25.39;45.17;100881.41;5007605;28;20502;-79
2021/07/21 10:04:37;;;;;;;7.23;4.90;;;;;;;25.77;43.48;100882.22;5002583;28;20417;-79
2021/07/21 10:07:14;;;;;;;6.03;5.05;;;;;;;26.30;42.40;100880.72;5011715;28;20411;-79
2021/07/21 10:09:39;;;;;;;7.65;5.40;;;;;;;27.14;40.02;100882.97;4984628;28;21008;-80
2021/07/21 10:12:19;;;;;;;6.03;4.95;;;;;;;28.30;37.45;100888.72;5007763;28;20937;-80
2021/07/21 10:14:58;;;;;;;5.53;4.63;;;;;;;30.95;32.83;100885.22;5008371;28;21135;-80
2021/07/21 10:17:24;;;;;;;6.65;4.45;;;;;;;33.95;28.20;100891.06;5004971;28;20415;-81
2021/07/21 10:19:49;;;;;;;7.88;5.00;;;;;;;35.99;24.29;100895.53;5006049;28;20415;-78
2021/07/21 10:22:14;;;;;;;6.97;4.87;;;;;;;37.61;22.73;100888.22;5003681;28;20429;-78
2021/07/21 10:24:40;;;;;;;6.07;4.63;;;;;;;38.97;20.81;100894.69;4989022;28;21642;-81
2021/07/21 10:27:06;;;;;;;8.13;4.80;;;;;;;39.82;19.99;100889.22;5018077;28;21492;-79
2021/07/21 10:29:32;;;;;;;5.97;4.60;;;;;;;40.59;19.06;100905.94;5009491;28;20508;-80
2021/07/21 10:31:58;;;;;;;5.00;4.20;;;;;;;40.45;18.88;100897.69;5005406;28;20415;-79
2021/07/21 10:34:27;;;;;;;4.75;4.40;;;;;;;40.94;18.55;100905.13;4992563;28;20411;-79
2021/07/21 10:36:53;;;;;;;5.95;5.00;;;;;;;41.08;18.32;100894.69;5008067;28;20497;-79
2021/07/21 10:39:22;;;;;;;7.57;5.05;;;;;;;40.81;18.90;100894.88;5007474;28;20488;-78
2021/07/21 10:41:48;;;;;;;4.90;4.50;;;;;;;40.51;18.74;100898.00;5009099;28;20464;-79
2021/07/21 10:44:16;;;;;;;9.25;4.40;;;;;;;39.82;18.72;100885.56;5006835;28;20419;-79
2021/07/21 10:46:48;;;;;;;4.63;4.22;;;;;;;40.13;18.92;100892.69;4976618;28;20419;-79
2021/07/21 10:49:36;;;;;;;5.00;4.57;;;;;;;40.42;18.98;100888.03;5006412;28;20528;-79
2021/07/21 10:55:01;;;;;;;5.07;4.60;;;;;;;41.08;17.38;100889.00;5010950;28;20452;-79
2021/07/21 11:00:22;;;;;;;5.40;4.90;;;;;;;41.07;17.36;100882.50;5004257;28;20486;-79
2021/07/21 11:02:52;;;;;;;6.03;4.97;;;;;;;41.17;17.71;100886.34;5008497;28;20428;-79
2021/07/21 11:05:26;;;;;;;4.68;4.38;;;;;;;41.17;17.64;100887.13;5004710;28;20414;-79
2021/07/21 11:07:53;;;;;;;4.75;4.43;;;;;;;41.34;17.68;100876.56;5008915;28;20604;-77
2021/07/21 11:10:35;;;;;;;5.68;5.10;;;;;;;41.27;17.58;100876.72;5007998;28;20415;-77
2021/07/21 11:13:02;;;;;;;6.05;4.60;;;;;;;41.10;17.58;100878.00;5006383;28;20450;-76
2021/07/21 11:15:47;;;;;;;6.82;4.80;;;;;;;40.74;18.02;100861.75;5007383;28;20976;-76
2021/07/21 11:18:21;;;;;;;6.30;5.00;;;;;;;40.47;18.00;100868.88;4988248;28;20429;-79
2021/07/21 11:21:11;;;;;;;5.37;4.97;;;;;;;39.95;18.84;100860.97;4992655;28;20399;-78
2021/07/21 11:23:51;;;;;;;7.07;5.00;;;;;;;39.39;19.39;100855.13;4991708;28;20458;-79
2021/07/21 11:26:39;;;;;;;6.45;4.95;;;;;;;39.98;18.81;100859.34;5011640;28;20442;-80
2021/07/21 11:29:23;;;;;;;6.15;5.40;;;;;;;39.61;19.17;100854.75;4994937;28;20430;-79
2021/07/21 11:31:48;;;;;;;5.13;4.63;;;;;;;39.20;19.21;100855.03;5009940;28;20423;-79
2021/07/21 11:34:13;;;;;;;5.60;4.73;;;;;;;39.34;19.42;100852.78;5008516;28;20424;-79
2021/07/21 11:36:39;;;;;;;5.93;5.10;;;;;;;39.27;19.51;100852.09;5007135;28;20412;-79